Time;durP1;ratioP1;P1;durP2;ratioP2;P2;SDS_P1;SDS_P2;PMS_P1;PMS_P2;Temp;Humidity;BMP_temperature;BMP_pressure;BME280_temperature;BME280_humidity;BME280_pressure;Samples;Min_cycle;Max_cycle;Signal;HPM_P1;HPM_P2
2022/07/16 00:01:22;;;;;;;0.82;0.82;;;18.00;86.30;;;;;;5034061;28;20656;-68
2022/07/16 00:03:52;;;;;;;0.70;0.60;;;18.00;86.40;;;;;;5033087;28;20254;-68
2022/07/16 00:06:19;;;;;;;0.60;0.60;;;18.00;86.40;;;;;;5032699;28;20194;-67
2022/07/16 00:08:47;;;;;;;0.60;0.60;;;18.00;86.60;;;;;;5033697;28;20679;-67
2022/07/16 00:11:14;;;;;;;0.60;0.60;;;18.00;86.70;;;;;;5033079;28;20538;-67
2022/07/16 00:13:41;;;;;;;1.00;0.82;;;17.90;86.60;;;;;;5032772;28;20279;-67
2022/07/16 00:16:09;;;;;;;0.80;0.80;;;17.90;86.80;;;;;;5048399;28;20218;-68
2022/07/16 00:21:23;;;;;;;0.77;0.70;;;17.80;87.20;;;;;;5033417;28;20193;-67
2022/07/16 00:23:50;;;;;;;0.80;0.80;;;17.70;87.30;;;;;;5033049;28;20209;-67
2022/07/16 00:26:18;;;;;;;0.60;0.60;;;17.70;87.50;;;;;;5033053;28;20951;-68
2022/07/16 00:28:45;;;;;;;0.93;0.85;;;17.70;87.60;;;;;;5047212;28;20727;-67
2022/07/16 00:31:12;;;;;;;0.63;0.63;;;17.80;87.90;;;;;;5043247;28;20976;-67
2022/07/16 00:33:40;;;;;;;1.45;0.73;;;17.80;87.90;;;;;;5033136;28;20216;-66
2022/07/16 00:36:07;;;;;;;1.13;0.77;;;17.80;87.90;;;;;;5032789;28;20259;-67
2022/07/16 00:38:36;;;;;;;0.70;0.70;;;17.80;88.00;;;;;;5049434;28;20289;-67
2022/07/16 00:41:03;;;;;;;0.60;0.60;;;17.80;87.90;;;;;;5034981;28;20295;-67
2022/07/16 00:43:30;;;;;;;0.70;0.70;;;17.80;88.00;;;;;;5032431;28;21034;-67
2022/07/16 00:45:57;;;;;;;0.65;0.65;;;17.80;88.10;;;;;;5034580;28;20197;-67
2022/07/16 00:48:25;;;;;;;1.75;0.70;;;17.80;88.30;;;;;;5034603;28;20208;-67
2022/07/16 00:50:52;;;;;;;0.60;0.60;;;17.80;88.30;;;;;;5035643;28;20194;-67
2022/07/16 00:53:19;;;;;;;0.88;0.70;;;17.80;88.30;;;;;;5037146;28;20685;-67
2022/07/16 00:55:47;;;;;;;1.10;1.00;;;17.80;88.30;;;;;;5037781;28;20230;-67
2022/07/16 00:58:15;;;;;;;1.95;0.88;;;17.80;88.30;;;;;;5035111;28;20646;-67
2022/07/16 01:00:42;;;;;;;0.80;0.80;;;17.70;88.20;;;;;;5037302;28;20234;-67
2022/07/16 01:03:10;;;;;;;1.00;0.82;;;17.70;88.20;;;;;;5037719;28;20592;-68
2022/07/16 01:05:39;;;;;;;1.17;0.90;;;17.70;88.20;;;;;;5035402;28;20213;-67
2022/07/16 01:08:06;;;;;;;1.20;1.08;;;17.60;88.20;;;;;;5036330;28;20201;-67
2022/07/16 01:10:34;;;;;;;0.63;0.63;;;17.60;88.20;;;;;;5037385;28;20285;-67
2022/07/16 01:13:03;;;;;;;1.17;0.98;;;17.50;88.10;;;;;;5036286;28;20280;-67
2022/07/16 01:15:30;;;;;;;0.82;0.77;;;17.50;88.10;;;;;;5037161;28;20205;-67
2022/07/16 01:17:57;;;;;;;0.95;0.95;;;17.50;88.20;;;;;;5036895;28;20285;-67
2022/07/16 01:20:25;;;;;;;0.60;0.60;;;17.50;88.30;;;;;;5036498;28;20595;-67
2022/07/16 01:22:54;;;;;;;0.95;0.95;;;17.50;88.20;;;;;;5036932;28;20337;-67
2022/07/16 01:25:23;;;;;;;1.08;0.70;;;17.50;88.30;;;;;;5037002;28;20341;-67
2022/07/16 01:27:50;;;;;;;0.65;0.65;;;17.40;88.20;;;;;;5035148;28;20281;-67
2022/07/16 01:30:17;;;;;;;0.70;0.70;;;17.40;88.30;;;;;;5036102;28;20201;-66
2022/07/16 01:32:44;;;;;;;0.80;0.80;;;17.50;88.50;;;;;;5036575;28;20201;-66
2022/07/16 01:35:11;;;;;;;0.60;0.60;;;17.40;88.40;;;;;;5046406;28;20194;-67
2022/07/16 01:37:38;;;;;;;0.65;0.65;;;17.40;88.50;;;;;;5037329;28;20300;-67
2022/07/16 01:40:06;;;;;;;0.57;0.57;;;17.50;88.70;;;;;;5036238;28;20236;-67
2022/07/16 01:42:35;;;;;;;0.60;0.60;;;17.50;88.80;;;;;;5035571;28;20198;-67
2022/07/16 01:45:02;;;;;;;0.95;0.60;;;17.40;88.70;;;;;;5027637;28;20209;-67
2022/07/16 01:47:29;;;;;;;2.75;0.63;;;17.40;88.90;;;;;;5036505;28;20196;-67
2022/07/16 01:49:56;;;;;;;1.75;0.80;;;17.50;89.00;;;;;;5036090;28;20235;-67
2022/07/16 01:52:23;;;;;;;0.50;0.50;;;17.40;89.00;;;;;;5036378;28;20327;-66
2022/07/16 01:54:53;;;;;;;0.60;0.60;;;17.50;89.10;;;;;;5035720;28;20312;-66
2022/07/16 01:57:21;;;;;;;0.70;0.70;;;17.50;89.20;;;;;;5035164;28;20206;-67
2022/07/16 01:59:50;;;;;;;1.25;0.80;;;17.50;89.30;;;;;;5035556;28;20194;-67
2022/07/16 02:02:17;;;;;;;0.60;0.60;;;17.40;89.40;;;;;;5052058;28;20573;-67
2022/07/16 02:04:44;;;;;;;0.50;0.50;;;17.40;89.60;;;;;;5037532;28;20228;-67
2022/07/16 02:07:11;;;;;;;0.90;0.60;;;17.40;89.80;;;;;;5036004;28;20185;-67
2022/07/16 02:09:38;;;;;;;0.60;0.60;;;17.40;90.00;;;;;;5036020;28;20665;-67
2022/07/16 02:12:06;;;;;;;0.97;0.70;;;17.40;90.00;;;;;;5036528;28;20213;-67
2022/07/16 02:14:33;;;;;;;0.77;0.67;;;17.40;90.10;;;;;;5035974;28;20201;-67
2022/07/16 02:17:02;;;;;;;0.50;0.50;;;17.40;90.20;;;;;;5051632;28;20221;-68
2022/07/16 02:19:29;;;;;;;0.50;0.50;;;17.40;90.20;;;;;;5035301;28;20186;-67
2022/07/16 02:21:56;;;;;;;0.60;0.60;;;17.50;90.30;;;;;;5034255;28;21108;-67
2022/07/16 02:24:23;;;;;;;0.63;0.63;;;17.50;90.40;;;;;;5035571;28;20193;-67
2022/07/16 02:26:50;;;;;;;0.80;0.80;;;17.60;90.50;;;;;;5035541;28;20222;-67
2022/07/16 02:29:17;;;;;;;1.77;0.70;;;17.60;90.50;;;;;;5034873;28;20194;-67
2022/07/16 02:31:45;;;;;;;0.90;0.60;;;17.70;90.50;;;;;;5036017;28;20219;-67
2022/07/16 02:34:13;;;;;;;2.00;0.63;;;17.70;90.60;;;;;;5035380;28;20300;-66
2022/07/16 02:36:40;;;;;;;0.93;0.85;;;17.70;90.60;;;;;;5035801;28;20312;-67
2022/07/16 02:39:07;;;;;;;1.05;0.90;;;17.60;90.60;;;;;;5052090;28;20267;-67
2022/07/16 02:41:34;;;;;;;0.60;0.60;;;17.60;90.70;;;;;;5035631;28;20201;-67
2022/07/16 02:44:01;;;;;;;1.60;0.70;;;17.60;90.70;;;;;;5034293;28;20202;-67
2022/07/16 02:46:28;;;;;;;1.52;0.70;;;17.60;90.90;;;;;;5035599;28;20210;-67
2022/07/16 02:48:55;;;;;;;0.82;0.80;;;17.60;90.90;;;;;;5036212;28;20198;-67
2022/07/16 02:51:24;;;;;;;0.60;0.60;;;17.60;91.00;;;;;;5035069;28;20728;-67
2022/07/16 02:53:51;;;;;;;0.70;0.70;;;17.60;91.00;;;;;;5034896;28;20251;-67
2022/07/16 02:56:18;;;;;;;0.50;0.50;;;17.60;91.00;;;;;;5034831;28;20541;-67
2022/07/16 02:58:45;;;;;;;0.68;0.68;;;17.60;91.00;;;;;;5049052;28;20202;-67
2022/07/16 03:01:12;;;;;;;1.55;0.80;;;17.60;91.00;;;;;;5049696;28;20212;-67
2022/07/16 03:03:39;;;;;;;0.60;0.60;;;17.60;91.00;;;;;;5034832;28;20385;-67
2022/07/16 03:06:07;;;;;;;0.73;0.73;;;17.50;91.00;;;;;;5034126;28;20228;-67
2022/07/16 03:08:35;;;;;;;0.60;0.60;;;17.50;91.10;;;;;;5034923;28;20648;-67
2022/07/16 03:11:02;;;;;;;0.50;0.50;;;17.50;91.20;;;;;;5034585;28;20251;-67
2022/07/16 03:13:29;;;;;;;0.52;0.52;;;17.50;91.20;;;;;;5033752;28;20194;-67
2022/07/16 03:15:56;;;;;;;0.40;0.40;;;17.50;91.20;;;;;;5034579;28;20280;-67
2022/07/16 03:18:24;;;;;;;0.50;0.50;;;17.50;91.20;;;;;;5035602;28;20205;-68
2022/07/16 03:20:51;;;;;;;0.65;0.65;;;17.50;91.30;;;;;;5035287;28;20273;-67
2022/07/16 03:23:18;;;;;;;0.60;0.60;;;17.40;91.30;;;;;;5042942;28;20198;-68
2022/07/16 03:25:46;;;;;;;0.50;0.50;;;17.40;91.30;;;;;;5034386;28;20800;-67
2022/07/16 03:28:13;;;;;;;0.60;0.60;;;17.40;91.40;;;;;;5033030;28;20194;-67
2022/07/16 03:30:40;;;;;;;1.15;0.80;;;17.40;91.40;;;;;;5034737;28;20211;-68
2022/07/16 03:33:07;;;;;;;0.75;0.70;;;17.40;91.50;;;;;;5034048;28;20284;-68
2022/07/16 03:35:35;;;;;;;0.60;0.60;;;17.40;91.60;;;;;;5033028;28;20825;-67
2022/07/16 03:40:48;;;;;;;0.73;0.70;;;17.40;91.70;;;;;;5049430;28;20205;-67
2022/07/16 03:43:15;;;;;;;0.60;0.60;;;17.40;92.10;;;;;;5032575;28;20757;-67
2022/07/16 03:45:42;;;;;;;1.07;0.70;;;17.40;91.70;;;;;;5049909;28;20291;-67
2022/07/16 03:48:09;;;;;;;0.70;0.60;;;17.40;91.70;;;;;;5034440;28;20204;-66
2022/07/16 03:50:36;;;;;;;0.55;0.50;;;17.50;91.80;;;;;;5034973;28;20190;-66
2022/07/16 03:53:03;;;;;;;1.08;0.70;;;17.40;91.70;;;;;;5033969;28;20201;-67
2022/07/16 03:55:31;;;;;;;0.60;0.60;;;17.40;91.80;;;;;;5035098;28;20311;-67
2022/07/16 03:57:59;;;;;;;1.33;0.60;;;17.40;91.80;;;;;;5033599;28;20213;-67
2022/07/16 04:00:26;;;;;;;1.42;0.55;;;17.50;91.90;;;;;;5034483;28;20317;-67
2022/07/16 04:02:53;;;;;;;0.60;0.60;;;17.50;91.90;;;;;;5033467;28;20198;-66
2022/07/16 04:05:20;;;;;;;0.60;0.60;;;17.50;91.90;;;;;;5034772;28;20581;-67
2022/07/16 04:07:47;;;;;;;0.55;0.55;;;17.50;91.90;;;;;;5035243;28;20289;-66
2022/07/16 04:10:14;;;;;;;1.80;0.70;;;17.60;91.90;;;;;;5034400;28;20344;-66
2022/07/16 04:12:41;;;;;;;0.70;0.65;;;17.60;91.90;;;;;;5033240;28;20228;-66
2022/07/16 04:15:10;;;;;;;0.50;0.50;;;17.60;91.90;;;;;;5033651;28;20198;-66
2022/07/16 04:17:37;;;;;;;0.57;0.57;;;17.60;91.80;;;;;;5034885;28;20849;-66
2022/07/16 04:20:06;;;;;;;0.50;0.50;;;17.70;91.90;;;;;;5048514;28;20615;-66
2022/07/16 04:22:33;;;;;;;1.75;0.70;;;17.70;91.80;;;;;;5034597;28;20247;-66
2022/07/16 04:25:00;;;;;;;0.75;0.60;;;17.80;91.80;;;;;;5034119;28;20321;-66
2022/07/16 04:27:27;;;;;;;1.80;0.80;;;17.80;91.80;;;;;;5037048;28;21081;-66
2022/07/16 04:29:54;;;;;;;0.63;0.60;;;17.90;91.70;;;;;;5036772;28;20194;-67
2022/07/16 04:32:22;;;;;;;0.73;0.73;;;17.90;91.70;;;;;;5037261;28;20201;-66
2022/07/16 04:34:49;;;;;;;0.50;0.50;;;17.90;91.60;;;;;;5037430;28;20205;-66
2022/07/16 04:37:17;;;;;;;0.43;0.43;;;18.00;91.60;;;;;;5036857;28;20225;-66
2022/07/16 04:39:44;;;;;;;0.55;0.52;;;18.00;91.50;;;;;;5038636;28;20215;-66
2022/07/16 04:42:11;;;;;;;0.60;0.60;;;18.10;91.50;;;;;;5036864;28;20209;-67
2022/07/16 04:44:38;;;;;;;0.50;0.50;;;18.10;91.50;;;;;;5036357;28;20263;-67
2022/07/16 04:47:05;;;;;;;0.82;0.60;;;18.20;91.40;;;;;;5037831;28;20201;-66
2022/07/16 04:49:34;;;;;;;1.65;0.50;;;18.20;91.40;;;;;;5037572;28;20198;-66
2022/07/16 04:52:01;;;;;;;0.45;0.45;;;18.20;91.30;;;;;;5037236;28;20202;-66
2022/07/16 04:54:28;;;;;;;0.50;0.50;;;18.20;91.20;;;;;;5037072;28;20198;-67
2022/07/16 04:56:55;;;;;;;0.55;0.55;;;18.20;91.10;;;;;;5036452;28;20212;-67
2022/07/16 04:59:22;;;;;;;1.95;0.50;;;18.20;91.10;;;;;;5035546;28;20206;-67
2022/07/16 05:01:49;;;;;;;0.60;0.60;;;18.20;91.00;;;;;;5036935;28;20689;-66
2022/07/16 05:04:16;;;;;;;0.63;0.60;;;18.20;91.00;;;;;;5038261;28;20220;-68
2022/07/16 05:06:45;;;;;;;0.50;0.50;;;18.30;91.00;;;;;;5037780;28;20292;-67
2022/07/16 05:09:12;;;;;;;0.70;0.70;;;18.30;91.00;;;;;;5036653;28;20208;-66
2022/07/16 05:11:39;;;;;;;0.60;0.60;;;18.30;91.00;;;;;;5040248;28;20208;-67
2022/07/16 05:14:06;;;;;;;0.60;0.60;;;18.30;91.00;;;;;;5051562;28;20747;-67
2022/07/16 05:16:33;;;;;;;0.40;0.40;;;18.20;91.00;;;;;;5035433;28;20404;-67
2022/07/16 05:19:00;;;;;;;0.60;0.60;;;18.30;91.10;;;;;;5037230;28;20355;-67
2022/07/16 05:21:27;;;;;;;0.70;0.60;;;18.30;91.10;;;;;;5037394;28;20197;-67
2022/07/16 05:23:56;;;;;;;0.60;0.60;;;18.30;91.10;;;;;;5036368;28;20304;-67
2022/07/16 05:26:23;;;;;;;0.50;0.50;;;18.30;91.20;;;;;;5036954;28;20764;-67
2022/07/16 05:28:50;;;;;;;0.70;0.70;;;18.30;91.10;;;;;;5050376;28;20658;-67
2022/07/16 05:31:17;;;;;;;0.52;0.52;;;18.30;91.10;;;;;;5036628;28;20203;-67
2022/07/16 05:33:44;;;;;;;2.72;0.75;;;18.30;91.20;;;;;;5036769;28;20659;-66
2022/07/16 05:36:11;;;;;;;0.70;0.70;;;18.30;91.20;;;;;;5035151;28;20210;-67
2022/07/16 05:38:38;;;;;;;0.65;0.65;;;18.30;91.30;;;;;;5035765;28;20275;-67
2022/07/16 05:41:06;;;;;;;0.50;0.50;;;18.30;91.30;;;;;;5036206;28;20584;-67
2022/07/16 05:43:33;;;;;;;2.42;0.68;;;18.30;91.30;;;;;;5028062;28;20212;-67
2022/07/16 05:46:00;;;;;;;1.17;0.80;;;18.30;91.30;;;;;;5037204;28;20241;-67
2022/07/16 05:48:28;;;;;;;0.45;0.45;;;18.30;91.40;;;;;;5036470;28;20218;-67
2022/07/16 05:50:55;;;;;;;0.63;0.63;;;18.30;91.30;;;;;;5051396;28;20792;-67
2022/07/16 05:53:22;;;;;;;0.50;0.50;;;18.40;91.70;;;;;;5051727;28;20212;-67
2022/07/16 05:55:49;;;;;;;0.52;0.50;;;18.40;91.30;;;;;;5052644;28;20203;-67
2022/07/16 05:58:18;;;;;;;0.50;0.50;;;18.40;91.30;;;;;;5034003;28;20305;-67
2022/07/16 06:00:45;;;;;;;0.55;0.55;;;18.40;91.40;;;;;;5035373;28;20194;-66
2022/07/16 06:03:12;;;;;;;0.88;0.70;;;18.40;91.40;;;;;;5036296;28;20224;-66
2022/07/16 06:05:39;;;;;;;0.88;0.80;;;18.40;91.40;;;;;;5051357;28;20375;-67
2022/07/16 06:08:06;;;;;;;0.75;0.75;;;18.40;91.40;;;;;;5036315;28;20591;-67
2022/07/16 06:10:33;;;;;;;0.50;0.50;;;18.50;91.50;;;;;;5035148;28;20684;-67
2022/07/16 06:13:00;;;;;;;0.60;0.60;;;18.40;91.40;;;;;;5034787;28;20406;-67
2022/07/16 06:15:28;;;;;;;1.40;0.70;;;18.50;91.50;;;;;;5035668;28;20238;-67
2022/07/16 06:17:56;;;;;;;0.50;0.50;;;18.50;91.60;;;;;;5035117;28;20304;-67
2022/07/16 06:20:23;;;;;;;0.38;0.38;;;18.50;91.60;;;;;;5035572;28;20501;-68
2022/07/16 06:22:52;;;;;;;1.17;0.60;;;18.50;91.60;;;;;;5035139;28;20198;-67
2022/07/16 06:25:19;;;;;;;0.60;0.60;;;18.50;91.60;;;;;;5035575;28;20257;-67
2022/07/16 06:27:46;;;;;;;2.72;0.63;;;18.50;91.60;;;;;;5034258;28;20571;-67
2022/07/16 06:30:14;;;;;;;5.93;0.60;;;18.60;91.50;;;;;;5034896;28;20221;-67
2022/07/16 06:32:44;;;;;;;0.60;0.60;;;18.60;91.50;;;;;;5034968;28;20296;-67
2022/07/16 06:35:11;;;;;;;0.57;0.57;;;18.70;91.30;;;;;;5034760;28;20907;-66
2022/07/16 06:37:39;;;;;;;0.40;0.40;;;18.70;91.10;;;;;;5035040;28;20324;-67
2022/07/16 06:40:07;;;;;;;0.60;0.60;;;18.80;91.00;;;;;;5035009;28;20206;-66
2022/07/16 06:42:34;;;;;;;0.60;0.55;;;18.80;90.90;;;;;;5025982;28;20209;-66
2022/07/16 06:45:02;;;;;;;0.65;0.65;;;18.90;90.80;;;;;;5034587;28;20190;-67
2022/07/16 06:47:29;;;;;;;1.33;0.80;;;18.90;90.70;;;;;;5041488;28;20297;-67
2022/07/16 06:49:57;;;;;;;1.10;0.70;;;19.00;90.40;;;;;;5033373;28;20716;-67
2022/07/16 06:52:24;;;;;;;0.50;0.50;;;19.00;90.00;;;;;;5034369;28;20221;-66
2022/07/16 06:54:51;;;;;;;0.65;0.65;;;19.00;89.50;;;;;;5035033;28;20202;-67
2022/07/16 06:57:19;;;;;;;0.93;0.90;;;19.10;89.40;;;;;;5035247;28;20212;-66
2022/07/16 06:59:46;;;;;;;0.52;0.52;;;19.10;88.90;;;;;;5048788;28;20252;-67
2022/07/16 07:02:14;;;;;;;0.57;0.57;;;19.20;88.60;;;;;;5035570;28;20242;-67
2022/07/16 07:04:41;;;;;;;0.50;0.50;;;19.20;88.40;;;;;;5034673;28;20193;-67
2022/07/16 07:07:09;;;;;;;0.50;0.50;;;19.30;88.30;;;;;;5034407;28;20299;-67
2022/07/16 07:09:36;;;;;;;0.50;0.50;;;19.30;88.10;;;;;;5034380;28;20257;-67
2022/07/16 07:12:04;;;;;;;2.00;0.60;;;19.30;88.10;;;;;;5035022;28;20760;-66
2022/07/16 07:14:31;;;;;;;0.60;0.60;;;19.40;88.10;;;;;;5034359;28;20271;-66
2022/07/16 07:16:58;;;;;;;0.70;0.70;;;19.40;88.40;;;;;;5035134;28;20541;-66
2022/07/16 07:19:25;;;;;;;0.50;0.50;;;19.40;88.50;;;;;;5034765;28;20217;-66
2022/07/16 07:21:52;;;;;;;1.30;0.68;;;19.40;88.60;;;;;;5050381;28;20550;-67
2022/07/16 07:24:21;;;;;;;0.60;0.60;;;19.40;88.70;;;;;;5034688;28;20206;-66
2022/07/16 07:26:48;;;;;;;2.90;0.70;;;19.40;88.80;;;;;;5041855;28;20233;-66
2022/07/16 07:29:15;;;;;;;0.68;0.63;;;19.40;89.00;;;;;;5034195;28;20197;-66
2022/07/16 07:31:42;;;;;;;1.55;0.85;;;19.40;89.00;;;;;;5026554;28;20201;-67
2022/07/16 07:34:09;;;;;;;0.50;0.50;;;19.40;89.10;;;;;;5034407;28;20702;-67
2022/07/16 07:36:36;;;;;;;1.02;0.70;;;19.40;89.00;;;;;;5050312;28;20292;-67
2022/07/16 07:39:03;;;;;;;1.70;0.82;;;19.40;89.00;;;;;;5034950;28;20684;-67
2022/07/16 07:41:32;;;;;;;0.85;0.50;;;19.40;88.70;;;;;;5035603;28;20197;-67
2022/07/16 07:43:59;;;;;;;0.50;0.50;;;19.30;88.70;;;;;;5048169;28;20257;-66
2022/07/16 07:46:26;;;;;;;0.70;0.60;;;19.30;88.70;;;;;;5033129;28;20351;-66
2022/07/16 07:48:53;;;;;;;1.00;0.95;;;19.30;88.70;;;;;;5033993;28;20613;-66
2022/07/16 07:51:20;;;;;;;4.10;2.35;;;19.20;88.80;;;;;;5035062;28;20196;-67
2022/07/16 07:53:48;;;;;;;1.75;1.20;;;19.20;89.00;;;;;;5035001;28;20766;-66
2022/07/16 07:56:15;;;;;;;1.50;0.85;;;19.20;89.00;;;;;;5034305;28;20429;-67
2022/07/16 07:58:43;;;;;;;3.22;0.90;;;19.20;89.10;;;;;;5033839;28;20219;-67
2022/07/16 08:01:11;;;;;;;0.68;0.60;;;19.10;89.20;;;;;;5054331;28;20197;-66
2022/07/16 08:03:38;;;;;;;0.60;0.60;;;19.10;89.30;;;;;;5039071;28;20332;-67
2022/07/16 08:06:05;;;;;;;0.55;0.55;;;19.00;89.30;;;;;;5037224;28;20309;-68
2022/07/16 08:08:33;;;;;;;0.55;0.55;;;19.10;89.60;;;;;;5053920;28;20583;-67
2022/07/16 08:11:00;;;;;;;0.60;0.60;;;19.10;89.70;;;;;;5038171;28;20200;-67
2022/07/16 08:13:27;;;;;;;1.02;0.70;;;19.10;89.80;;;;;;5037432;28;21242;-68
2022/07/16 08:15:55;;;;;;;0.50;0.50;;;19.10;90.00;;;;;;5038940;28;20247;-67
2022/07/16 08:18:22;;;;;;;0.55;0.55;;;19.10;90.10;;;;;;5037596;28;20580;-67
2022/07/16 08:20:49;;;;;;;0.63;0.60;;;19.10;90.30;;;;;;5038778;28;20628;-67
2022/07/16 08:25:44;;;;;;;2.00;0.90;;;19.00;90.50;;;;;;5037787;28;20206;-67
2022/07/16 08:26:03;;;;;;;1.27;0.90;;;19.00;90.70;;;;;;5038726;28;20222;-68
2022/07/16 08:28:30;;;;;;;1.65;0.90;;;18.90;90.80;;;;;;5036535;28;20355;-68
2022/07/16 08:30:59;;;;;;;1.10;0.65;;;18.80;90.80;;;;;;5053280;28;20275;-68
2022/07/16 08:33:26;;;;;;;0.65;0.65;;;18.70;90.90;;;;;;5038190;28;20240;-68
2022/07/16 08:35:53;;;;;;;0.60;0.60;;;18.70;91.10;;;;;;5044764;28;20233;-68
2022/07/16 08:38:20;;;;;;;0.60;0.60;;;18.70;91.30;;;;;;5038140;28;20766;-68
2022/07/16 08:40:50;;;;;;;0.50;0.50;;;18.60;91.30;;;;;;5046255;28;20507;-67
2022/07/16 08:43:17;;;;;;;0.45;0.45;;;18.60;91.30;;;;;;5036299;28;20205;-67
2022/07/16 08:45:45;;;;;;;0.60;0.60;;;18.70;91.40;;;;;;5037928;28;20669;-68
2022/07/16 08:48:14;;;;;;;0.70;0.70;;;18.70;91.50;;;;;;5037982;28;20260;-68
2022/07/16 08:50:43;;;;;;;3.50;0.52;;;18.70;91.50;;;;;;5037766;28;20198;-67
2022/07/16 08:53:10;;;;;;;0.50;0.50;;;18.80;91.60;;;;;;5037211;28;20198;-67
2022/07/16 08:55:39;;;;;;;0.52;0.52;;;18.70;91.60;;;;;;5037412;28;20220;-67
2022/07/16 08:58:08;;;;;;;0.82;0.70;;;18.80;91.80;;;;;;5036539;28;20201;-68
2022/07/16 09:00:35;;;;;;;1.65;0.60;;;18.80;91.90;;;;;;5028912;28;20621;-67
2022/07/16 09:03:03;;;;;;;0.77;0.68;;;18.80;92.10;;;;;;5037184;28;20198;-66
2022/07/16 09:05:31;;;;;;;1.33;0.80;;;18.80;92.20;;;;;;5036742;28;20194;-67
2022/07/16 09:07:58;;;;;;;1.38;0.75;;;18.70;92.30;;;;;;5051018;28;20256;-67
2022/07/16 09:10:34;;;;;;;0.85;0.60;;;18.70;92.50;;;;;;5036217;28;20252;-67
2022/07/16 09:13:01;;;;;;;0.80;0.80;;;18.70;92.50;;;;;;5034488;28;20542;-68
2022/07/16 09:15:31;;;;;;;0.52;0.50;;;18.70;92.50;;;;;;5036780;28;20272;-67
2022/07/16 09:18:16;;;;;;;0.60;0.60;;;18.80;92.60;;;;;;5036960;28;20305;-67
2022/07/16 09:20:47;;;;;;;0.73;0.73;;;18.70;92.70;;;;;;5036252;28;20194;-67
2022/07/16 09:23:29;;;;;;;0.57;0.57;;;18.70;92.80;;;;;;5036631;28;20189;-67
2022/07/16 09:25:59;;;;;;;1.10;1.00;;;18.80;92.90;;;;;;5036590;28;20230;-67
2022/07/16 09:28:40;;;;;;;1.20;1.10;;;18.80;93.10;;;;;;5027714;28;20601;-67
2022/07/16 09:31:07;;;;;;;1.20;1.10;;;18.80;93.10;;;;;;5037193;28;20221;-67
2022/07/16 09:33:34;;;;;;;1.52;0.80;;;18.80;93.20;;;;;;5035878;28;20202;-67
2022/07/16 09:36:08;;;;;;;1.15;0.98;;;18.80;93.30;;;;;;5035445;28;20205;-67
2022/07/16 09:38:50;;;;;;;0.70;0.70;;;18.80;93.50;;;;;;5036450;28;20232;-67
2022/07/16 09:41:18;;;;;;;0.75;0.60;;;18.70;93.40;;;;;;5036672;28;20194;-67
2022/07/16 09:43:46;;;;;;;0.70;0.70;;;18.60;93.40;;;;;;5035382;28;20812;-67
2022/07/16 09:46:18;;;;;;;0.55;0.55;;;18.80;93.50;;;;;;5051040;28;20274;-67
2022/07/16 09:48:45;;;;;;;0.70;0.70;;;18.80;93.60;;;;;;5036202;28;20189;-67
2022/07/16 09:51:21;;;;;;;2.05;0.80;;;18.80;93.60;;;;;;5036151;28;20194;-67
2022/07/16 09:53:48;;;;;;;0.52;0.52;;;18.70;93.60;;;;;;5051263;28;21179;-68
2022/07/16 09:56:18;;;;;;;0.70;0.70;;;18.70;93.50;;;;;;5050793;28;20661;-68
2022/07/16 09:58:50;;;;;;;1.08;0.63;;;18.60;93.20;;;;;;5045109;28;20304;-67
2022/07/16 10:01:18;;;;;;;0.70;0.70;;;18.60;93.10;;;;;;5036362;28;20224;-67
2022/07/16 10:03:46;;;;;;;0.47;0.47;;;18.50;93.10;;;;;;5035444;28;20273;-66
2022/07/16 10:06:14;;;;;;;1.48;0.60;;;18.50;93.30;;;;;;5035593;28;20708;-67
2022/07/16 10:08:44;;;;;;;1.67;0.65;;;18.50;93.60;;;;;;5036146;28;20284;-67
2022/07/16 10:11:12;;;;;;;0.65;0.65;;;18.50;93.70;;;;;;5033500;28;20213;-67
2022/07/16 10:13:43;;;;;;;0.57;0.55;;;18.50;93.80;;;;;;5034440;28;20199;-65
2022/07/16 10:16:10;;;;;;;0.65;0.65;;;18.40;93.80;;;;;;5035224;28;20190;-67
2022/07/16 10:18:41;;;;;;;0.52;0.52;;;18.40;93.90;;;;;;5035458;28;20195;-67
2022/07/16 10:21:13;;;;;;;1.23;0.73;;;18.40;94.00;;;;;;5042389;28;20198;-67
2022/07/16 10:23:44;;;;;;;0.95;0.60;;;18.40;94.20;;;;;;5036096;28;20398;-66
2022/07/16 10:26:17;;;;;;;1.38;0.70;;;18.30;94.30;;;;;;5034882;28;20744;-67
2022/07/16 10:28:47;;;;;;;0.40;0.40;;;18.20;94.40;;;;;;5043675;28;20543;-67
2022/07/16 10:31:40;;;;;;;0.57;0.57;;;18.20;94.60;;;;;;5034968;28;20202;-68
2022/07/16 10:34:39;;;;;;;1.40;0.60;;;18.20;95.00;;;;;;5035895;28;20273;-67
2022/07/16 10:37:12;;;;;;;0.50;0.50;;;18.10;95.10;;;;;;5035238;28;20209;-66
2022/07/16 10:40:01;;;;;;;0.73;0.73;;;18.00;95.20;;;;;;5035630;28;20205;-66
2022/07/16 10:42:28;;;;;;;0.60;0.60;;;18.00;95.40;;;;;;5041317;28;20581;-66
2022/07/16 10:44:56;;;;;;;1.20;0.80;;;18.00;95.50;;;;;;5049671;28;20195;-67
2022/07/16 10:47:43;;;;;;;0.60;0.60;;;18.00;95.60;;;;;;5035426;28;20703;-66
2022/07/16 10:50:17;;;;;;;0.52;0.52;;;18.00;95.70;;;;;;5035418;28;20204;-68
2022/07/16 10:52:48;;;;;;;0.50;0.50;;;17.90;95.90;;;;;;5034230;28;20747;-66
2022/07/16 10:55:32;;;;;;;0.82;0.70;;;17.90;96.00;;;;;;5035286;28;20297;-67
2022/07/16 10:57:59;;;;;;;0.60;0.60;;;18.00;96.40;;;;;;5034991;28;20268;-67
2022/07/16 11:00:27;;;;;;;0.63;0.63;;;18.00;96.50;;;;;;5034137;28;20597;-67
2022/07/16 11:02:59;;;;;;;0.73;0.50;;;18.00;96.70;;;;;;5036367;28;20793;-66
2022/07/16 11:05:29;;;;;;;0.50;0.50;;;18.00;96.80;;;;;;5034916;28;20653;-67
2022/07/16 11:08:07;;;;;;;1.60;0.68;;;18.00;96.90;;;;;;5035049;28;20311;-67
2022/07/16 11:10:38;;;;;;;0.60;0.60;;;18.00;97.00;;;;;;5034749;28;21036;-67
2022/07/16 11:13:12;;;;;;;0.65;0.65;;;18.00;97.20;;;;;;5050830;28;20274;-66
2022/07/16 11:15:40;;;;;;;0.73;0.70;;;18.00;97.30;;;;;;5035279;28;20215;-67
2022/07/16 11:18:15;;;;;;;0.50;0.50;;;18.10;97.70;;;;;;5034539;28;20206;-66
2022/07/16 11:20:43;;;;;;;0.50;0.50;;;18.10;97.40;;;;;;5024773;28;20565;-67
2022/07/16 11:23:15;;;;;;;0.60;0.60;;;18.20;97.50;;;;;;5034568;28;20209;-67
2022/07/16 11:26:01;;;;;;;0.90;0.90;;;18.20;97.70;;;;;;5034530;28;20229;-67
2022/07/16 11:28:28;;;;;;;0.90;0.90;;;18.10;97.90;;;;;;5033590;28;20210;-67
2022/07/16 11:31:06;;;;;;;0.63;0.63;;;18.40;98.10;;;;;;5034865;28;20192;-66
2022/07/16 11:33:35;;;;;;;0.50;0.50;;;18.10;98.10;;;;;;5048951;28;20202;-67
2022/07/16 11:36:08;;;;;;;0.70;0.70;;;18.10;98.20;;;;;;5033291;28;20221;-67
2022/07/16 11:38:35;;;;;;;2.33;0.70;;;18.00;98.30;;;;;;5033855;28;20755;-67
2022/07/16 11:41:04;;;;;;;0.50;0.50;;;18.10;98.40;;;;;;5035131;28;20272;-67
2022/07/16 11:43:31;;;;;;;0.82;0.60;;;18.10;98.60;;;;;;5034347;28;20194;-66
2022/07/16 11:45:58;;;;;;;0.60;0.60;;;18.10;98.80;;;;;;5034444;28;20206;-67
2022/07/16 11:48:25;;;;;;;0.68;0.68;;;18.10;98.90;;;;;;5034784;28;20220;-66
2022/07/16 11:50:53;;;;;;;0.60;0.60;;;18.10;99.10;;;;;;5035518;28;20611;-66
2022/07/16 11:53:32;;;;;;;0.50;0.50;;;18.10;99.10;;;;;;5034010;28;20205;-66
2022/07/16 11:55:59;;;;;;;0.55;0.55;;;18.10;99.20;;;;;;5034259;28;20700;-66
2022/07/16 11:58:28;;;;;;;0.70;0.70;;;18.00;99.30;;;;;;5047755;28;20217;-67
2022/07/16 12:00:55;;;;;;;1.38;0.80;;;18.10;99.40;;;;;;5035829;28;20302;-68
2022/07/16 12:03:22;;;;;;;1.73;1.02;;;18.20;99.50;;;;;;5035350;28;20194;-67
2022/07/16 12:06:00;;;;;;;2.00;1.33;;;18.10;99.70;;;;;;5034568;28;20213;-67
2022/07/16 12:08:28;;;;;;;2.03;1.40;;;18.10;99.90;;;;;;5034631;28;20228;-67
2022/07/16 12:11:03;;;;;;;1.40;1.15;;;18.00;99.90;;;;;;5034046;28;20217;-66
2022/07/16 12:13:32;;;;;;;1.20;1.00;;;17.90;99.90;;;;;;5048240;28;20494;-67
2022/07/16 12:16:01;;;;;;;1.35;1.00;;;17.90;99.90;;;;;;5049398;28;20311;-66
2022/07/16 12:18:28;;;;;;;0.70;0.70;;;17.90;99.90;;;;;;5035213;28;20202;-67
2022/07/16 12:21:15;;;;;;;1.20;0.90;;;17.90;99.90;;;;;;5034345;28;20222;-66
2022/07/16 12:23:46;;;;;;;0.70;0.70;;;17.90;99.90;;;;;;5032143;28;20208;-66
2022/07/16 12:26:13;;;;;;;1.63;0.70;;;18.00;99.90;;;;;;5034164;28;20312;-67
2022/07/16 12:28:52;;;;;;;1.73;1.17;;;18.00;99.90;;;;;;5032939;28;20919;-67
2022/07/16 12:31:19;;;;;;;1.77;1.23;;;18.00;99.90;;;;;;5042671;28;20202;-67
2022/07/16 12:33:51;;;;;;;1.13;1.02;;;17.90;99.90;;;;;;5034691;28;20217;-66
2022/07/16 12:36:19;;;;;;;0.80;0.80;;;17.90;99.90;;;;;;5049188;28;20602;-67
2022/07/16 12:38:52;;;;;;;3.22;2.85;;;18.00;99.90;;;;;;5033113;28;20200;-67
2022/07/16 12:41:21;;;;;;;3.30;2.80;;;18.10;99.90;;;;;;5032868;28;20240;-67
2022/07/16 12:43:53;;;;;;;3.10;2.00;;;18.10;99.90;;;;;;5033282;28;20202;-68
2022/07/16 12:46:21;;;;;;;2.53;1.58;;;18.20;99.90;;;;;;5033169;28;20194;-66
2022/07/16 12:48:51;;;;;;;1.25;0.93;;;18.10;99.90;;;;;;5052745;28;20212;-67
2022/07/16 12:51:20;;;;;;;1.70;0.98;;;18.10;99.90;;;;;;5036347;28;20196;-66
2022/07/16 12:53:48;;;;;;;1.83;1.08;;;18.10;99.90;;;;;;5035085;28;20287;-66
2022/07/16 12:59:03;;;;;;;4.25;3.30;;;18.20;99.90;;;;;;5035841;28;20196;-67
2022/07/16 13:01:30;;;;;;;3.67;3.33;;;18.30;99.90;;;;;;5038142;28;20724;-67
2022/07/16 13:03:58;;;;;;;3.83;2.95;;;18.30;99.90;;;;;;5052944;28;20222;-68